createdAt,value
2019-05-18T00:02:10.690Z,5.13
2019-05-18T00:04:38.701Z,5.97
2019-05-18T00:07:06.637Z,6.63
2019-05-18T00:09:34.652Z,5.70
2019-05-18T00:12:02.821Z,5.90
2019-05-18T00:14:30.809Z,5.40
2019-05-18T00:16:58.781Z,5.47
2019-05-18T00:19:26.744Z,5.63
2019-05-18T00:21:54.807Z,5.13
2019-05-18T00:24:22.777Z,5.97
2019-05-18T00:26:50.802Z,5.83
2019-05-18T00:29:18.833Z,5.80
2019-05-18T00:31:46.800Z,6.00
2019-05-18T00:34:14.793Z,5.27
2019-05-18T00:36:42.733Z,5.87
2019-05-18T00:39:10.902Z,6.43
2019-05-18T00:41:38.817Z,5.40
2019-05-18T00:44:06.771Z,6.23
2019-05-18T00:46:34.895Z,6.40
2019-05-18T00:49:03.004Z,6.63
2019-05-18T00:51:30.996Z,5.73
2019-05-18T00:53:59.013Z,6.67
2019-05-18T00:56:26.923Z,5.80
2019-05-18T00:58:54.974Z,6.20
2019-05-18T01:01:22.887Z,5.70
2019-05-18T01:03:51.313Z,6.00
2019-05-18T01:06:19.339Z,6.43
2019-05-18T01:08:47.333Z,5.73
2019-05-18T01:11:15.362Z,5.83
2019-05-18T01:13:43.397Z,6.07
2019-05-18T01:16:11.508Z,6.17
2019-05-18T01:18:40.179Z,6.77
2019-05-18T01:21:08.448Z,6.37
2019-05-18T01:23:36.407Z,6.20
2019-05-18T01:26:04.372Z,5.93
2019-05-18T01:28:32.474Z,6.60
2019-05-18T01:31:00.684Z,5.80
2019-05-18T01:33:28.585Z,5.87
2019-05-18T01:35:56.685Z,5.73
2019-05-18T01:38:24.558Z,6.00
2019-05-18T01:40:52.767Z,5.83
2019-05-18T01:43:20.836Z,5.90
2019-05-18T01:45:49.036Z,5.60
2019-05-18T01:48:17.028Z,6.03
2019-05-18T01:50:44.994Z,6.63
2019-05-18T01:53:12.933Z,6.30
2019-05-18T01:55:40.900Z,5.60
2019-05-18T01:58:09.319Z,6.40
2019-05-18T02:00:37.274Z,5.80
2019-05-18T02:03:05.243Z,6.03
2019-05-18T02:05:33.334Z,5.67
2019-05-18T02:08:01.203Z,5.83
2019-05-18T02:10:29.198Z,6.00
2019-05-18T02:12:57.063Z,5.70
2019-05-18T02:15:24.972Z,5.70
2019-05-18T02:17:53.005Z,5.73
2019-05-18T02:20:20.953Z,5.80
2019-05-18T02:22:49.028Z,5.53
2019-05-18T02:25:17.173Z,5.73
2019-05-18T02:27:45.159Z,5.40
2019-05-18T02:30:17.196Z,5.30
2019-05-18T02:32:43.034Z,5.57
2019-05-18T02:35:11.156Z,5.77
2019-05-18T02:37:39.340Z,5.83
2019-05-18T02:40:07.756Z,6.40
2019-05-18T02:42:36.311Z,6.00
2019-05-18T02:45:04.312Z,6.10
2019-05-18T02:47:32.185Z,5.03
2019-05-18T02:50:00.065Z,6.20
2019-05-18T02:52:28.021Z,5.60
2019-05-18T02:54:56.003Z,6.10
2019-05-18T02:57:24.167Z,5.67
2019-05-18T02:59:52.455Z,5.87
2019-05-18T03:02:20.450Z,6.50
2019-05-18T03:04:48.464Z,6.20
2019-05-18T03:07:16.556Z,5.83
2019-05-18T03:09:44.732Z,5.77
2019-05-18T03:12:12.709Z,5.70
2019-05-18T03:14:40.672Z,5.40
2019-05-18T03:17:08.537Z,6.60
2019-05-18T03:19:36.588Z,6.07
2019-05-18T03:22:04.465Z,5.87
2019-05-18T03:24:32.546Z,6.20
2019-05-18T03:27:00.402Z,6.10
2019-05-18T03:29:28.336Z,5.87
2019-05-18T03:31:56.231Z,6.10
2019-05-18T03:34:24.190Z,5.80
2019-05-18T03:36:52.172Z,5.60
2019-05-18T03:39:20.017Z,5.43
2019-05-18T03:41:47.938Z,6.20
2019-05-18T03:44:16.035Z,6.17
2019-05-18T03:46:44.055Z,5.80
2019-05-18T03:49:26.212Z,5.23
2019-05-18T03:51:41.608Z,5.87
2019-05-18T03:54:09.647Z,5.90
2019-05-18T03:56:37.560Z,5.40
2019-05-18T03:59:05.489Z,5.87
2019-05-18T04:01:33.501Z,6.67
2019-05-18T04:04:01.368Z,5.70
2019-05-18T04:06:29.434Z,5.87
2019-05-18T04:08:57.306Z,5.40
2019-05-18T04:11:25.180Z,6.33
2019-05-18T04:13:53.018Z,5.83
2019-05-18T04:16:21.015Z,5.90
2019-05-18T04:18:49.019Z,5.77
2019-05-18T04:21:16.909Z,5.53
2019-05-18T04:23:45.021Z,5.90
2019-05-18T04:26:13.201Z,5.70
2019-05-18T04:28:41.186Z,5.80
2019-05-18T04:31:09.114Z,5.47
2019-05-18T04:33:37.097Z,5.70
2019-05-18T04:36:04.975Z,5.43
2019-05-18T04:38:32.856Z,5.13
2019-05-18T04:41:00.987Z,5.80
2019-05-18T04:43:28.867Z,6.27
2019-05-18T04:45:56.755Z,5.87
2019-05-18T04:48:24.831Z,5.60
2019-05-18T04:50:52.851Z,5.40
2019-05-18T04:53:20.846Z,5.80
2019-05-18T04:55:48.750Z,5.73
2019-05-18T04:58:16.761Z,5.50
2019-05-18T05:00:44.872Z,5.73
2019-05-18T05:03:13.465Z,5.10
2019-05-18T05:05:41.439Z,5.57
2019-05-18T05:08:09.424Z,5.33
2019-05-18T05:10:37.436Z,5.20
2019-05-18T05:13:05.433Z,6.20
2019-05-18T05:15:33.513Z,5.47
2019-05-18T05:18:01.536Z,5.53
2019-05-18T05:20:29.701Z,5.73
2019-05-18T05:22:57.660Z,5.93
2019-05-18T05:25:25.709Z,5.77
2019-05-18T05:27:53.776Z,5.27
2019-05-18T05:30:21.908Z,5.40
2019-05-18T05:32:50.013Z,6.37
2019-05-18T05:35:18.004Z,5.90
2019-05-18T05:37:45.934Z,5.53
2019-05-18T05:40:14.128Z,5.63
2019-05-18T05:42:42.044Z,6.30
2019-05-18T05:45:10.231Z,6.50
2019-05-18T05:47:38.079Z,6.10
2019-05-18T05:50:06.629Z,5.60
2019-05-18T05:52:34.839Z,5.30
2019-05-18T05:55:02.848Z,5.40
2019-05-18T05:57:30.814Z,5.50
2019-05-18T05:59:58.711Z,5.70
2019-05-18T06:02:26.573Z,5.67
2019-05-18T06:04:54.487Z,6.07
2019-05-18T06:07:22.371Z,5.80
2019-05-18T06:09:50.272Z,5.50
2019-05-18T06:12:18.308Z,5.77
2019-05-18T06:14:46.285Z,5.70
2019-05-18T06:17:14.221Z,5.53
2019-05-18T06:19:42.114Z,5.60
2019-05-18T06:22:09.992Z,5.90
2019-05-18T06:24:37.999Z,4.90
2019-05-18T06:27:05.986Z,5.17
2019-05-18T06:29:33.872Z,5.20
2019-05-18T06:32:01.911Z,5.57
2019-05-18T06:34:29.892Z,5.57
2019-05-18T06:36:57.955Z,5.50
2019-05-18T06:39:25.960Z,5.63
2019-05-18T06:41:53.945Z,5.60
2019-05-18T06:44:21.827Z,5.37
2019-05-18T06:46:49.684Z,4.93
2019-05-18T06:49:17.610Z,5.77
2019-05-18T06:51:45.476Z,7.03
2019-05-18T06:54:13.480Z,6.27
2019-05-18T06:56:42.077Z,5.50
2019-05-18T06:59:10.474Z,7.03
2019-05-18T07:01:38.609Z,5.80
2019-05-18T07:04:06.519Z,5.77
2019-05-18T07:06:34.630Z,6.13
2019-05-18T07:09:02.697Z,6.00
2019-05-18T07:11:30.913Z,5.93
2019-05-18T07:13:58.951Z,5.47
2019-05-18T07:16:26.909Z,6.13
2019-05-18T07:18:54.840Z,4.73
2019-05-18T07:21:22.849Z,6.03
2019-05-18T07:23:50.801Z,5.83
2019-05-18T07:26:18.689Z,5.90
2019-05-18T07:28:46.618Z,7.00
2019-05-18T07:31:14.591Z,6.40
2019-05-18T07:33:42.581Z,5.00
2019-05-18T07:36:10.503Z,6.83
2019-05-18T07:38:38.584Z,7.13
2019-05-18T07:41:06.593Z,5.13
2019-05-18T07:43:35.044Z,4.93
2019-05-18T07:46:03.047Z,4.50
2019-05-18T07:48:31.145Z,3.90
2019-05-18T07:50:59.097Z,4.30
2019-05-18T07:53:26.989Z,4.50
2019-05-18T07:55:54.942Z,3.83
2019-05-18T07:58:22.810Z,2.87
2019-05-18T08:00:50.710Z,3.40
2019-05-18T08:03:18.608Z,4.37
2019-05-18T08:05:46.443Z,4.00
2019-05-18T08:08:14.360Z,3.50
2019-05-18T08:10:43.784Z,5.30
2019-05-18T08:13:12.033Z,5.50
2019-05-18T08:15:39.959Z,4.80
2019-05-18T08:18:07.879Z,3.87
2019-05-18T08:20:35.987Z,3.60
2019-05-18T08:23:04.064Z,3.97
2019-05-18T08:25:32.077Z,4.20
2019-05-18T08:28:00.183Z,4.23
2019-05-18T08:30:28.215Z,4.97
2019-05-18T08:32:56.147Z,3.63
2019-05-18T08:35:27.029Z,4.27
2019-05-18T08:37:53.769Z,5.10
2019-05-18T08:40:21.731Z,5.03
2019-05-18T08:42:49.638Z,4.70
2019-05-18T08:45:21.242Z,5.37
2019-05-18T08:47:49.616Z,4.53
2019-05-18T08:50:18.050Z,4.20
2019-05-18T08:52:45.953Z,4.43
2019-05-18T08:55:14.553Z,4.37
2019-05-18T08:57:42.541Z,4.00
2019-05-18T09:00:10.803Z,4.80
2019-05-18T09:02:38.737Z,3.70
2019-05-18T09:05:06.816Z,4.77
2019-05-18T09:07:34.795Z,5.50
2019-05-18T09:10:02.741Z,4.67
2019-05-18T09:12:31.708Z,4.60
2019-05-18T09:14:59.579Z,4.67
2019-05-18T09:17:27.708Z,3.93
2019-05-18T09:19:55.647Z,3.93
2019-05-18T09:22:23.660Z,3.70
2019-05-18T09:24:51.582Z,4.67
2019-05-18T09:27:19.569Z,3.70
2019-05-18T09:29:47.611Z,5.03
2019-05-18T09:32:15.661Z,4.57
2019-05-18T09:34:43.632Z,5.40
2019-05-18T09:37:11.624Z,3.73
2019-05-18T09:39:39.610Z,4.40
2019-05-18T09:42:07.725Z,5.30
2019-05-18T09:44:35.630Z,3.93
2019-05-18T09:47:03.616Z,3.73
2019-05-18T09:49:31.677Z,3.50
2019-05-18T09:51:59.626Z,5.27
2019-05-18T09:54:27.602Z,4.40
2019-05-18T09:56:55.506Z,4.63
2019-05-18T09:59:23.519Z,5.90
2019-05-18T10:01:51.487Z,4.60
2019-05-18T10:04:19.650Z,4.63
2019-05-18T10:06:55.057Z,6.00
2019-05-18T10:09:23.373Z,5.00
2019-05-18T10:11:51.561Z,5.10
2019-05-18T10:14:19.467Z,6.40
2019-05-18T10:16:47.377Z,5.53
2019-05-18T10:19:15.672Z,4.33
2019-05-18T10:21:43.641Z,4.83
2019-05-18T10:24:11.634Z,5.20
2019-05-18T10:26:39.491Z,5.60
2019-05-18T10:29:07.426Z,5.70
2019-05-18T10:31:35.301Z,5.13
2019-05-18T10:34:03.224Z,6.63
2019-05-18T10:36:31.166Z,4.73
2019-05-18T10:38:59.151Z,5.87
2019-05-18T10:41:27.132Z,6.30
2019-05-18T10:43:55.237Z,7.10
2019-05-18T10:46:23.334Z,5.20
2019-05-18T10:48:51.352Z,5.33
2019-05-18T10:51:19.260Z,5.00
2019-05-18T10:53:47.138Z,6.10
2019-05-18T10:56:15.166Z,5.43
2019-05-18T10:58:50.341Z,6.07
2019-05-18T11:01:18.303Z,5.10
2019-05-18T11:03:46.180Z,5.93
2019-05-18T11:06:14.395Z,6.80
2019-05-18T11:08:42.439Z,5.53
2019-05-18T11:11:10.452Z,4.83
2019-05-18T11:13:38.360Z,5.07
2019-05-18T11:16:06.358Z,4.63
2019-05-18T11:18:34.473Z,5.77
2019-05-18T11:21:02.650Z,4.70
2019-05-18T11:23:42.779Z,3.50
2019-05-18T11:26:00.539Z,4.50
2019-05-18T11:28:28.670Z,4.57
2019-05-18T11:30:56.719Z,4.03
2019-05-18T11:33:24.637Z,4.10
2019-05-18T11:35:52.691Z,4.50
2019-05-18T11:38:20.924Z,4.50
2019-05-18T11:40:48.841Z,5.50
2019-05-18T11:43:16.789Z,5.40
2019-05-18T11:45:44.700Z,5.77
2019-05-18T11:48:12.650Z,5.40
2019-05-18T11:50:40.726Z,5.97
2019-05-18T11:53:08.762Z,4.90
2019-05-18T11:55:36.659Z,6.00
2019-05-18T11:58:04.625Z,5.37
2019-05-18T12:00:32.616Z,4.70
2019-05-18T12:03:00.470Z,4.40
2019-05-18T12:05:28.413Z,5.03
2019-05-18T12:07:56.364Z,4.33
2019-05-18T12:10:24.862Z,4.67
2019-05-18T12:12:52.739Z,4.70
2019-05-18T12:15:20.803Z,4.43
2019-05-18T12:17:48.861Z,4.50
2019-05-18T12:20:16.759Z,4.77
2019-05-18T12:22:45.491Z,5.27
2019-05-18T12:25:13.570Z,5.50
2019-05-18T12:27:41.556Z,4.87
2019-05-18T12:30:10.089Z,4.93
2019-05-18T12:32:38.036Z,5.20
2019-05-18T12:35:05.992Z,5.23
2019-05-18T12:37:34.000Z,5.10
2019-05-18T12:40:02.089Z,4.70
2019-05-18T12:42:30.027Z,5.20
2019-05-18T12:44:57.906Z,5.43
2019-05-18T12:47:25.882Z,4.47
2019-05-18T12:49:53.785Z,4.57
2019-05-18T12:52:21.976Z,5.03
2019-05-18T12:54:50.221Z,3.67
2019-05-18T12:57:18.680Z,3.30
2019-05-18T12:59:46.799Z,4.00
2019-05-18T13:02:15.109Z,4.93
2019-05-18T13:04:43.069Z,4.70
2019-05-18T13:07:10.968Z,4.20
2019-05-18T13:09:38.913Z,3.90
2019-05-18T13:12:06.832Z,4.60
2019-05-18T13:14:34.699Z,4.53
2019-05-18T13:17:05.674Z,4.00
2019-05-18T13:19:46.150Z,4.73
2019-05-18T13:22:14.154Z,4.40
2019-05-18T13:24:45.263Z,4.97
2019-05-18T13:27:11.854Z,4.03
2019-05-18T13:29:39.833Z,4.37
2019-05-18T13:32:07.776Z,3.30
2019-05-18T13:34:35.963Z,4.40
2019-05-18T13:37:03.980Z,4.00
2019-05-18T13:39:31.943Z,3.80
2019-05-18T13:41:59.895Z,3.30
2019-05-18T13:44:27.823Z,3.50
2019-05-18T13:46:55.763Z,3.13
2019-05-18T13:49:23.882Z,3.60
2019-05-18T13:51:51.778Z,3.77
2019-05-18T13:54:19.948Z,3.37
2019-05-18T13:56:47.835Z,3.07
2019-05-18T13:59:15.797Z,3.60
2019-05-18T14:01:43.782Z,3.57
2019-05-18T14:04:11.715Z,2.90
2019-05-18T14:06:39.864Z,2.87
2019-05-18T14:09:07.845Z,3.03
2019-05-18T14:11:35.906Z,3.50
2019-05-18T14:14:04.180Z,3.10
2019-05-18T14:16:32.252Z,3.27
2019-05-18T14:19:00.276Z,3.70
2019-05-18T14:21:28.328Z,6.47
2019-05-18T14:23:56.187Z,3.80
2019-05-18T14:26:24.194Z,3.47
2019-05-18T14:28:52.134Z,3.00
2019-05-18T14:31:20.184Z,3.30
2019-05-18T14:33:48.194Z,3.10
2019-05-18T14:36:16.143Z,3.40
2019-05-18T14:38:44.218Z,2.90
2019-05-18T14:41:12.118Z,2.73
2019-05-18T14:43:40.009Z,2.63
2019-05-18T14:46:07.920Z,3.57
2019-05-18T14:48:35.909Z,3.70
2019-05-18T14:51:03.927Z,3.47
2019-05-18T14:53:31.852Z,3.10
2019-05-18T14:55:59.739Z,3.00
2019-05-18T14:58:27.645Z,3.03
2019-05-18T15:00:55.662Z,2.70
2019-05-18T15:03:23.645Z,2.93
2019-05-18T15:05:59.928Z,3.00
2019-05-18T15:08:28.375Z,2.63
2019-05-18T15:10:56.257Z,2.90
2019-05-18T15:13:24.240Z,3.00
2019-05-18T15:15:52.264Z,2.57
2019-05-18T15:18:20.213Z,3.17
2019-05-18T15:20:48.140Z,3.10
2019-05-18T15:23:16.043Z,3.17
2019-05-18T15:25:50.573Z,2.67
2019-05-18T15:28:13.523Z,3.10
2019-05-18T15:30:41.469Z,4.70
2019-05-18T15:33:09.420Z,3.40
2019-05-18T15:35:37.363Z,2.93
2019-05-18T15:38:05.337Z,3.30
2019-05-18T15:40:33.220Z,2.63
2019-05-18T15:43:01.359Z,2.20
2019-05-18T15:45:29.302Z,2.13
2019-05-18T15:47:57.306Z,1.90
2019-05-18T15:50:25.218Z,2.57
2019-05-18T15:52:53.074Z,3.50
2019-05-18T15:55:20.970Z,3.03
2019-05-18T15:57:48.858Z,3.13
2019-05-18T16:00:16.948Z,3.17
2019-05-18T16:02:44.884Z,3.90
2019-05-18T16:05:13.979Z,4.37
2019-05-18T16:07:41.933Z,5.10
2019-05-18T16:10:09.892Z,4.53
2019-05-18T16:12:37.887Z,5.03
2019-05-18T16:15:06.092Z,5.10
2019-05-18T16:17:39.324Z,4.90
2019-05-18T16:20:03.782Z,6.07
2019-05-18T16:22:31.746Z,4.97
2019-05-18T16:24:59.651Z,5.47
2019-05-18T16:27:27.572Z,6.27
2019-05-18T16:29:55.574Z,5.03
2019-05-18T16:32:23.507Z,4.87
2019-05-18T16:34:51.452Z,5.00
2019-05-18T16:37:19.432Z,5.17
2019-05-18T16:39:47.483Z,4.80
2019-05-18T16:42:15.373Z,4.87
2019-05-18T16:44:43.400Z,5.00
2019-05-18T16:47:11.310Z,4.93
2019-05-18T16:49:39.280Z,5.20
2019-05-18T16:52:07.195Z,4.80
2019-05-18T16:54:35.102Z,4.97
2019-05-18T16:57:03.042Z,4.60
2019-05-18T16:59:30.933Z,4.37
2019-05-18T17:01:58.830Z,4.90
2019-05-18T17:04:26.829Z,4.50
2019-05-18T17:06:55.246Z,4.97
2019-05-18T17:09:23.712Z,4.43
2019-05-18T17:11:51.647Z,4.80
2019-05-18T17:14:19.660Z,4.63
2019-05-18T17:16:47.682Z,5.63
2019-05-18T17:19:15.568Z,4.83
2019-05-18T17:21:43.757Z,4.50
2019-05-18T17:24:11.612Z,4.33
2019-05-18T17:26:52.209Z,5.70
2019-05-18T17:29:09.108Z,5.63
2019-05-18T17:31:36.975Z,5.10
2019-05-18T17:34:04.840Z,4.80
2019-05-18T17:36:32.805Z,4.13
2019-05-18T17:39:00.712Z,4.47
2019-05-18T17:41:28.594Z,3.77
2019-05-18T17:43:56.452Z,3.60
2019-05-18T17:46:24.371Z,4.43
2019-05-18T17:48:52.229Z,3.87
2019-05-18T17:51:20.168Z,4.30
2019-05-18T17:53:48.015Z,4.00
2019-05-18T17:56:15.862Z,4.00
2019-05-18T17:58:43.767Z,3.67
2019-05-18T18:01:11.708Z,3.87
2019-05-18T18:03:39.687Z,3.90
2019-05-18T18:06:07.723Z,3.20
2019-05-18T18:08:35.604Z,3.53
2019-05-18T18:11:03.526Z,3.70
2019-05-18T18:13:31.582Z,3.17
2019-05-18T18:15:59.451Z,3.90
2019-05-18T18:18:27.389Z,3.43
2019-05-18T18:20:55.285Z,3.33
2019-05-18T18:23:23.177Z,2.63
2019-05-18T18:25:51.164Z,3.37
2019-05-18T18:28:19.019Z,2.80
2019-05-18T18:30:46.899Z,3.43
2019-05-18T18:33:14.910Z,3.10
2019-05-18T18:35:42.814Z,3.53
2019-05-18T18:38:10.655Z,3.60
2019-05-18T18:40:38.532Z,3.00
2019-05-18T18:43:06.519Z,3.47
2019-05-18T18:45:34.536Z,2.93
2019-05-18T18:48:02.439Z,2.97
2019-05-18T18:50:30.365Z,3.23
2019-05-18T18:52:58.239Z,3.40
2019-05-18T18:55:26.122Z,3.27
2019-05-18T18:57:54.128Z,3.30
2019-05-18T19:00:21.989Z,3.60
2019-05-18T19:02:49.840Z,3.83
2019-05-18T19:05:17.706Z,3.30
2019-05-18T19:07:45.677Z,3.80
2019-05-18T19:10:15.200Z,3.70
2019-05-18T19:12:43.060Z,3.00
2019-05-18T19:15:11.085Z,3.33
2019-05-18T19:17:39.112Z,3.03
2019-05-18T19:20:07.108Z,3.53
2019-05-18T19:22:34.953Z,2.60
2019-05-18T19:25:03.008Z,2.77
2019-05-18T19:27:30.935Z,2.70
2019-05-18T19:29:58.796Z,2.40
2019-05-18T19:32:26.815Z,2.27
2019-05-18T19:34:54.837Z,2.50
2019-05-18T19:37:26.273Z,2.37
2019-05-18T19:39:52.390Z,2.77
2019-05-18T19:42:20.399Z,2.63
2019-05-18T19:44:48.303Z,2.30
2019-05-18T19:47:16.144Z,4.63
2019-05-18T19:49:44.046Z,3.70
2019-05-18T19:52:11.956Z,3.10
2019-05-18T19:54:39.793Z,3.03
2019-05-18T19:57:07.710Z,2.67
2019-05-18T19:59:35.764Z,2.90
2019-05-18T20:02:03.664Z,3.30
2019-05-18T20:04:31.563Z,3.70
2019-05-18T20:06:59.529Z,4.53
2019-05-18T20:09:27.352Z,5.07
2019-05-18T20:11:55.230Z,4.87
2019-05-18T20:14:23.112Z,4.30
2019-05-18T20:16:51.089Z,4.33
2019-05-18T20:19:19.156Z,4.20
2019-05-18T20:21:47.007Z,3.60
2019-05-18T20:24:14.939Z,4.00
2019-05-18T20:26:42.927Z,4.50
2019-05-18T20:29:10.793Z,4.27
2019-05-18T20:31:38.700Z,3.90
2019-05-18T20:34:06.716Z,3.97
2019-05-18T20:36:34.705Z,3.93
2019-05-18T20:39:03.059Z,4.73
2019-05-18T20:41:30.924Z,4.83
2019-05-18T20:43:58.862Z,4.50
2019-05-18T20:46:26.852Z,4.50
2019-05-18T20:48:54.895Z,4.57
2019-05-18T20:51:22.827Z,4.87
2019-05-18T20:53:50.705Z,4.50
2019-05-18T20:56:18.556Z,5.03
2019-05-18T20:58:46.458Z,5.03
2019-05-18T21:01:14.354Z,4.53
2019-05-18T21:03:42.216Z,4.23
2019-05-18T21:06:10.081Z,4.20
2019-05-18T21:08:38.017Z,4.30
2019-05-18T21:11:06.001Z,4.30
2019-05-18T21:13:34.003Z,4.60
2019-05-18T21:16:01.892Z,4.80
2019-05-18T21:18:29.997Z,4.67
2019-05-18T21:20:57.859Z,5.63
2019-05-18T21:23:25.736Z,5.57
2019-05-18T21:25:53.654Z,6.70
2019-05-18T21:28:21.501Z,6.37
2019-05-18T21:30:49.335Z,6.90
2019-05-18T21:33:17.220Z,6.90
2019-05-18T21:35:45.104Z,6.90
2019-05-18T21:38:13.013Z,7.90
2019-05-18T21:40:40.906Z,6.37
2019-05-18T21:43:08.959Z,6.70
2019-05-18T21:45:36.806Z,7.07
2019-05-18T21:48:04.706Z,7.90
2019-05-18T21:50:32.618Z,6.70
2019-05-18T21:53:00.526Z,7.40
2019-05-18T21:55:28.461Z,7.60
2019-05-18T21:57:56.601Z,6.90
2019-05-18T22:00:25.062Z,6.20
2019-05-18T22:02:53.024Z,6.87
2019-05-18T22:05:20.972Z,7.63
2019-05-18T22:07:48.960Z,7.20
2019-05-18T22:10:25.402Z,7.43
2019-05-18T22:12:46.395Z,6.97
2019-05-18T22:15:14.275Z,6.87
2019-05-18T22:17:59.821Z,7.30
2019-05-18T22:20:27.698Z,6.70
2019-05-18T22:22:55.723Z,7.13
2019-05-18T22:25:23.573Z,6.97
2019-05-18T22:27:51.543Z,7.10
2019-05-18T22:30:19.499Z,7.60
2019-05-18T22:32:47.410Z,7.90
2019-05-18T22:35:15.321Z,7.13
2019-05-18T22:37:43.249Z,8.10
2019-05-18T22:40:11.185Z,7.97
2019-05-18T22:42:39.038Z,8.53
2019-05-18T22:45:07.123Z,8.50
2019-05-18T22:47:38.427Z,8.40
2019-05-18T22:50:07.027Z,8.30
2019-05-18T22:52:34.912Z,8.03
2019-05-18T22:55:02.860Z,8.47
2019-05-18T22:57:30.879Z,9.00
2019-05-18T22:59:58.805Z,8.50
2019-05-18T23:02:26.738Z,8.50
2019-05-18T23:04:54.867Z,9.13
2019-05-18T23:07:22.942Z,8.80
2019-05-18T23:09:51.928Z,8.30
2019-05-18T23:12:19.921Z,8.73
2019-05-18T23:14:47.847Z,9.27
2019-05-18T23:17:15.729Z,9.63
2019-05-18T23:19:43.648Z,8.80
2019-05-18T23:22:11.542Z,9.90
2019-05-18T23:24:39.485Z,11.23
2019-05-18T23:27:07.386Z,8.60
2019-05-18T23:29:35.407Z,8.73
2019-05-18T23:32:03.383Z,9.97
2019-05-18T23:34:31.459Z,9.03
2019-05-18T23:36:59.501Z,10.07
2019-05-18T23:39:29.146Z,9.17
2019-05-18T23:41:57.343Z,10.33
2019-05-18T23:44:25.282Z,10.43
2019-05-18T23:46:53.703Z,11.03
2019-05-18T23:49:21.735Z,11.50
2019-05-18T23:51:49.630Z,10.13
2019-05-18T23:54:17.671Z,9.73
2019-05-18T23:56:45.591Z,10.00
2019-05-18T23:59:13.595Z,10.43
